Mussey Grade (971, 6917, MOR1) Station Data

Red Flag Warning: No
Fire Weather Zone: 250
SDGE Region: Ramona
Lat/Lon: 32.986/-116.908

Observations

Time Wind Speed/Gust Temp(F) RH Fuel Moist Fuel Temp(F) Dewpt(F) Tmax(F) Tmin(F) Accum Precip 10-min Precip SL Press(mb)
6/27 5:00pm 237 8 G 13 89° 16% - - 36° 96.3° 72.3° - - -
6/27 4:50pm 240 6 G 14 90° 15% - - 36° 96.3° 72.3° - - -
6/27 4:40pm 234 6 G 14 90° 16% - - 37° 96.3° 72.3° - - -
6/27 4:30pm 211 7 G 13 89° 16% - - 37° 96.3° 72.3° - - -
6/27 4:20pm 223 6 G 12 91° 16% - - 38° 96.3° 72.3° - - -
6/27 4:10pm 217 7 G 14 90° 16% - - 38° 96.3° 72.3° - - -
6/27 4:00pm 205 7 G 13 90° 16% - - 38° 96.3° 72.3° - - -
6/27 3:50pm 193 7 G 13 90° 16% - - 37° 96.3° 72.3° - - -
6/27 3:40pm 200 7 G 14 90° 15% - - 37° 96.3° 72.3° - - -
6/27 3:30pm 217 8 G 14 90° 15% - - 36° 96.3° 72.3° - - -
6/27 3:20pm 233 7 G 15 92° 13% - - 35° 96.3° 72.3° - - -
6/27 3:10pm 235 8 G 12 91° 14% - - 35° 96.3° 72.3° - - -
6/27 3:00pm 235 7 G 14 91° 14% - - 36° 96.3° 72.3° - - -
6/27 2:50pm 245 7 G 14 92° 14% - - 36° 96.3° 72.3° - - -
6/27 2:40pm 237 8 G 13 92° 13% - - 34° 96.3° 72.3° - - -
6/27 2:30pm 233 8 G 14 92° 13% - - 34° 96.3° 72.3° - - -
6/27 2:20pm 232 9 G 14 93° 12% - - 32° 96.3° 72.3° - - -
6/27 2:10pm 237 8 G 15 93° 12% - - 34° 96.3° 72.3° - - -
6/27 2:00pm 247 7 G 13 95° 13% - - 35° 96.3° 72.3° - - -
6/27 1:50pm 249 5 G 12 95° 14% - - 38° 96.3° 72.3° - - -
6/27 1:40pm 250 7 G 17 95° 14% - - 38° 96.3° 72.3° - - -
6/27 1:30pm 241 6 G 13 95° 14% - - 37° 96.3° 72.3° - - -
6/27 1:20pm 233 7 G 13 94° 14% - - 37° 96.3° 72.3° - - -
6/27 1:10pm 235 7 G 15 94° 13% - - 36° 96.3° 72.3° - - -
6/27 1:00pm 250 7 G 12 95° 11% - - 33° 96.3° 72.3° - - -
6/27 12:50pm 240 7 G 12 95° 11% - - 32° 96.3° 72.3° - - -
6/27 12:40pm 234 5 G 12 95° 10% - - 31° 95.7° 72.3° - - -
6/27 12:30pm 236 6 G 10 95° 10% - - 30° 95.4° 72.3° - - -
6/27 12:20pm 233 6 G 13 94° 11% - - 32° 95.4° 72.3° - - -
6/27 12:10pm 229 6 G 12 94° 10% - - 30° 94.4° 72.3° - - -
6/27 12:00pm 222 6 G 11 94° 10% - - 29° 94.4° 72.3° - - -
6/27 11:50am 238 5 G 10 94° 10% - - 29° 94.4° 72.3° - - -
6/27 11:40am 220 5 G 12 93° 12% - - 34° 94.4° 72.3° - - -
6/27 11:30am 230 4 G 11 93° 11% - - 32° 93.5° 72.3° - - -
6/27 11:20am 212 6 G 13 93° 11% - - 31° 93.1° 72.3° - - -
6/27 11:10am 203 5 G 12 92° 11% - - 29° 92.7° 72.3° - - -
6/27 11:00am 208 4 G 11 92° 10% - - 28° 92.7° 72.3° - - -
6/27 10:50am 195 5 G 12 92° 11% - - 29° 92.7° 72.3° - - -
6/27 10:40am 200 5 G 10 91° 11% - - 29° 92.7° 72.3° - - -
6/27 10:30am 205 4 G 8 92° 10% - - 27° 92.7° 72.3° - - -
6/27 10:20am 200 3 G 6 92° 10% - - 27° 92.7° 72.3° - - -
6/27 10:10am 197 4 G 7 91° 10% - - 27° 92.7° 72.3° - - -
6/27 10:00am 188 3 G 6 91° 10% - - 27° 92.7° 72.3° - - -
6/27 9:50am 197 2 G 4 92° 9% - - 25° 92.7° 72.3° - - -
6/27 9:40am 245 1 G 3 92° 8% - - 23° 92.7° 72.3° - - -
6/27 9:30am 231 1 G 4 91° 9% - - 23° 92.7° 72.3° - - -
6/27 9:20am 176 1 G 4 89° 8% - - 21° 92.7° 72.3° - - -
6/27 9:10am 197 2 G 4 88° 10% - - 24° 92.7° 72.3° - - -
6/27 9:00am 211 2 G 4 88° 10% - - 24° 92.7° 72.3° - - -
6/27 8:50am 232 2 G 4 87° 11% - - 26° 92.7° 72.3° - - -
6/27 8:40am 216 2 G 4 87° 12% - - 28° 92.7° 72.3° - - -
6/27 8:30am 246 1 G 2 89° 12% - - 29° 92.7° 72.3° - - -
6/27 8:20am 222 0 G 2 91° 12% - - 32° 92.7° 72.3° - - -
6/27 8:10am 156 0 G 1 86° 14% - - 32° 88.1° 72.3° - - -
6/27 8:00am 212 0 G 1 86° 14% - - 31° 87.5° 72.3° - - -
6/27 7:50am 177 0 G 1 85° 14% - - 30° 87.5° 72.3° - - -
6/27 7:40am 97 2 G 5 83° 13% - - 28° 83.7° 72.3° - - -
6/27 7:30am 68 3 G 4 82° 14% - - 28° 82.6° 72.3° - - -
6/27 7:20am 58 2 G 4 81° 14% - - 27° 81.7° 72.3° - - -
6/27 7:10am 54 2 G 3 79° 17% - - 30° 79.9° 72.3° - - -
6/27 7:00am 53 2 G 4 79° 16% - - 28° 79.3° 72.3° - - -
6/27 6:50am 50 2 G 4 77° 17% - - 29° 78.8° 72.3° - - -
6/27 6:40am 63 3 G 6 78° 14% - - 25° 78.8° 72.3° - - -
6/27 6:30am 65 4 G 6 77° 13% - - 23° 78.5° 72.3° - - -
6/27 6:20am 62 4 G 5 74° 15% - - 24° 77.9° 72.3° - - -
6/27 6:10am 64 3 G 5 74° 15% - - 23° 77.9° 72.3° - - -
6/27 6:00am 82 3 G 5 75° 14% - - 22° 77.9° 72.3° - - -
6/27 5:50am 67 3 G 5 76° 13% - - 22° 77.9° 72.3° - - -
6/27 5:40am 57 3 G 6 76° 13% - - 22° 77.9° 72.3° - - -
6/27 5:30am 61 4 G 7 76° 13% - - 22° 77.9° 72.3° - - -
6/27 5:20am 60 4 G 6 74° 14% - - 22° 77.9° 72.3° - - -
6/27 5:10am 66 3 G 4 73° 16% - - 23° 77.9° 72.3° - - -
6/27 5:00am 63 3 G 4 75° 14% - - 22° 77.9° 73.5° - - -
6/27 4:50am 67 4 G 5 77° 13% - - 22° 77.9° 73.6° - - -
6/27 4:40am 62 3 G 5 77° 13% - - 22° 77.9° 73.6° - - -
6/27 4:30am 63 3 G 4 77° 13% - - 22° 77.9° 73.6° - - -
6/27 4:20am 63 3 G 4 77° 13% - - 23° 77.9° 73.6° - - -
6/27 4:10am 58 2 G 3 77° 13% - - 23° 77.9° 73.6° - - -
6/27 4:00am 58 3 G 4 76° 14% - - 23° 77.9° 73.6° - - -
6/27 3:50am 54 3 G 5 75° 15% - - 24° 77.9° 73.6° - - -
6/27 3:40am 74 2 G 6 74° 15% - - 24° 77.9° 73.6° - - -
6/27 3:30am 55 3 G 5 74° 15% - - 24° 77.9° 73.6° - - -
6/27 3:20am 65 3 G 5 76° 15% - - 25° 77.9° 73.9° - - -
6/27 3:10am 62 4 G 7 77° 13% - - 24° 77.8° 74.3° - - -
6/27 3:00am 68 4 G 6 77° 14% - - 24° 77.3° 74.3° - - -
6/27 2:50am 66 5 G 6 77° 14% - - 24° 77.3° 74.3° - - -
6/27 2:40am 67 5 G 7 77° 14% - - 24° 77.3° 74.3° - - -
6/27 2:30am 63 4 G 6 76° 15% - - 25° 77.3° 74.3° - - -
6/27 2:20am 54 3 G 6 75° 16% - - 26° 77.3° 74.3° - - -
6/27 2:10am 57 3 G 4 75° 16% - - 26° 77.3° 74.3° - - -
6/27 2:00am 56 2 G 4 75° 17% - - 28° 77.3° 74.3° - - -
6/27 1:50am 51 2 G 4 76° 17% - - 27° 77.3° 74.5° - - -
6/27 1:40am 48 2 G 4 75° 17% - - 27° 77.3° 74.5° - - -
6/27 1:30am 51 2 G 3 75° 18% - - 28° 77.3° 74.5° - - -
6/27 1:20am 50 2 G 3 75° 18% - - 28° 77.3° 74.9° - - -
6/27 1:10am 55 2 G 3 75° 17% - - 28° 77.3° 74.9° - - -
6/27 1:00am 55 2 G 3 76° 17% - - 28° 77.3° 75° - - -
6/27 12:50am 55 2 G 3 75° 18% - - 29° 77.3° 75° - - -
6/27 12:40am 53 2 G 4 76° 18% - - 29° 77.3° 75.4° - - -
6/27 12:30am 44 2 G 3 76° 19% - - 31° 77.3° 75.4° - - -
6/27 12:20am 52 2 G 4 77° 20% - - 32° 77.3° 75.8° - - -
6/27 12:10am 62 2 G 5 76° 20% - - 32° 77.3° 75.8° - - -
6/27 12:00am 64 2 G 5 77° 19% - - 32° 102.1° 76.1° - - -
6/26 11:50pm 52 3 G 3 77° 19% - - 32° 102.1° 76.1° - - -
6/26 11:40pm 41 2 G 4 77° 20% - - 32° 102.1° 76.1° - - -
6/26 11:30pm 66 2 G 4 77° 20% - - 32° 102.1° 76.2° - - -
6/26 11:20pm 53 2 G 4 77° 20% - - 33° 102.1° 76.2° - - -
6/26 11:10pm 58 2 G 3 78° 19% - - 33° 102.1° 76.6° - - -
6/26 11:00pm 50 2 G 4 79° 19% - - 33° 102.1° 77.3° - - -
6/26 10:50pm 57 3 G 4 79° 18% - - 33° 102.1° 77.3° - - -
6/26 10:40pm 78 3 G 4 80° 18% - - 32° 102.1° 77.3° - - -
6/26 10:30pm 15 3 G 7 82° 17% - - 32° 102.1° 77.3° - - -
6/26 10:20pm 4 6 G 9 82° 18% - - 34° 102.1° 77.3° - - -
6/26 10:10pm 3 5 G 8 82° 14% - - 29° 102.1° 77.3° - - -
6/26 10:00pm 55 3 G 5 82° 12% - - 24° 102.1° 77.3° - - -
6/26 9:50pm 48 2 G 3 81° 12% - - 23° 102.1° 77.3° - - -
6/26 9:40pm 45 1 G 3 82° 12% - - 24° 102.1° 77.3° - - -
6/26 9:30pm 38 2 G 4 82° 12% - - 24° 102.1° 77.3° - - -
6/26 9:20pm 47 2 G 3 82° 12% - - 25° 102.1° 77.3° - - -
6/26 9:10pm 46 2 G 3 83° 12% - - 25° 102.1° 77.3° - - -
6/26 9:00pm 49 2 G 3 84° 12% - - 25° 102.1° 77.3° - - -
6/26 8:50pm 45 3 G 4 85° 11% - - 24° 102.1° 77.3° - - -
6/26 8:40pm 38 2 G 3 85° 11% - - 24° 102.1° 77.3° - - -
6/26 8:30pm 31 2 G 3 85° 11% - - 25° 102.1° 77.3° - - -
6/26 8:20pm 45 2 G 3 85° 12% - - 26° 102.1° 77.3° - - -
6/26 8:10pm 37 1 G 3 85° 13% - - 28° 102.1° 77.3° - - -
6/26 8:00pm 58 2 G 3 87° 12% - - 28° 102.1° 77.3° - - -
6/26 7:50pm 50 1 G 3 88° 12% - - 28° 102.1° 77.3° - - -
6/26 7:40pm 32 1 G 4 89° 11% - - 27° 102.1° 77.3° - - -
6/26 7:30pm 293 2 G 6 90° 12% - - 30° 102.1° 77.3° - - -
6/26 7:20pm 309 2 G 7 91° 12% - - 32° 102.1° 77.3° - - -
6/26 7:10pm 329 2 G 8 91° 12% - - 32° 102.1° 77.3° - - -
6/26 7:00pm 319 2 G 5 92° 13% - - 33° 102.1° 77.3° - - -
6/26 6:50pm 290 2 G 8 92° 13% - - 33° 102.1° 77.3° - - -
6/26 6:40pm 294 3 G 7 93° 12% - - 32° 102.1° 77.3° - - -
6/26 6:30pm 301 3 G 9 93° 11% - - 31° 102.1° 77.3° - - -
6/26 6:20pm 317 3 G 10 94° 10% - - 30° 102.1° 77.3° - - -
6/26 6:10pm 299 2 G 7 95° 10% - - 30° 102.1° 77.3° - - -
6/26 6:00pm 318 3 G 8 95° 10% - - 30° 102.1° 77.3° - - -
6/26 5:50pm 255 4 G 8 96° 10% - - 31° 102.1° 77.3° - - -
6/26 5:40pm 240 5 G 9 96° 10% - - 31° 102.1° 77.3° - - -
6/26 5:30pm 250 5 G 9 97° 9% - - 29° 102.1° 77.3° - - -
6/26 5:20pm 266 4 G 10 98° 9% - - 30° 102.1° 77.3° - - -
6/26 5:10pm 297 3 G 8 98° 9% - - 29° 102.1° 77.3° - - -
6/26 5:00pm 308 4 G 10 98° 9% - - 29° 102.1° 77.3° - - -
6/26 4:50pm 295 4 G 9 98° 9% - - 29° 102.1° 77.3° - - -
6/26 4:40pm 286 3 G 9 100° 9% - - 29° 102.1° 77.3° - - -
6/26 4:30pm 256 4 G 11 100° 9% - - 31° 102.1° 77.3° - - -
6/26 4:20pm 250 5 G 11 100° 9% - - 30° 102.1° 77.3° - - -
6/26 4:10pm 232 7 G 12 99° 8% - - 29° 102.1° 77.3° - - -
6/26 4:00pm 238 7 G 13 100° 7% - - 26° 102.1° 77.3° - - -
6/26 3:50pm 232 7 G 15 100° 7% - - 25° 102.1° 77.3° - - -
6/26 3:40pm 238 6 G 12 100° 7% - - 25° 102.1° 77.3° - - -
6/26 3:30pm 237 8 G 14 100° 6% - - 23° 102.1° 77.3° - - -
6/26 3:20pm 237 7 G 14 100° 7% - - 24° 102.1° 77.3° - - -
6/26 3:10pm 236 6 G 13 100° 7% - - 23° 102.1° 77.3° - - -
6/26 3:00pm 238 6 G 14 100° 6% - - 22° 102.1° 77.3° - - -
6/26 2:50pm 249 6 G 13 100° 6% - - 21° 102.1° 77.3° - - -
6/26 2:40pm 248 6 G 12 100° 6% - - 22° 102.1° 77.3° - - -
6/26 2:30pm 252 5 G 12 101° 6% - - 23° 102.1° 77.3° - - -
6/26 2:20pm 251 5 G 9 102° 6% - - 23° 102.1° 77.3° - - -
6/26 2:10pm 251 5 G 10 101° 7% - - 27° 101.6° 77.3° - - -
6/26 2:00pm 252 5 G 9 100° 8% - - 28° 101.2° 77.3° - - -
6/26 1:50pm 268 4 G 8 101° 9% - - 32° 101.2° 77.3° - - -
6/26 1:40pm 271 4 G 9 100° 10% - - 34° 101.2° 77.3° - - -
6/26 1:30pm 273 4 G 10 100° 10% - - 34° 101.2° 77.3° - - -
6/26 1:20pm 252 4 G 10 100° 10% - - 33° 101.2° 77.3° - - -
6/26 1:10pm 260 4 G 11 100° 10% - - 34° 101.2° 77.3° - - -
6/26 1:00pm 299 3 G 8 100° 9% - - 32° 101.2° 77.3° - - -
6/26 12:50pm 302 3 G 8 100° 9% - - 31° 101.2° 77.3° - - -
6/26 12:40pm 287 3 G 10 100° 9% - - 31° 101.2° 77.3° - - -
6/26 12:30pm 260 3 G 10 100° 9% - - 32° 101.2° 77.3° - - -
6/26 12:20pm 259 3 G 8 100° 10% - - 33° 101.2° 77.3° - - -
6/26 12:10pm 280 3 G 7 100° 10% - - 33° 100.9° 77.3° - - -
6/26 12:00pm 273 3 G 9 100° 8% - - 29° 100.9° 77.3° - - -
6/26 11:50am 270 3 G 9 100° 8% - - 28° 100.9° 77.3° - - -
6/26 11:40am 297 3 G 6 100° 8% - - 28° 100.4° 77.3° - - -
6/26 11:30am 294 4 G 9 100° 7% - - 24° 100.4° 77.3° - - -
6/26 11:20am 263 3 G 8 100° 7% - - 24° 100.4° 77.3° - - -
6/26 11:10am 270 3 G 10 100° 7% - - 24° 99.9° 77.3° - - -
6/26 11:00am 253 5 G 11 99° 6% - - 21° 99.9° 77.3° - - -
6/26 10:50am 245 4 G 9 99° 7% - - 23° 99.9° 77.3° - - -
6/26 10:40am 245 5 G 10 98° 6% - - 22° 99° 77.3° - - -
6/26 10:30am 221 3 G 9 95° 13% - - 36° 97.6° 77.3° - - -
6/26 10:20am 193 4 G 8 94° 16% - - 41° 97.6° 77.3° - - -
6/26 10:10am 193 5 G 8 94° 15% - - 39° 97.6° 77.3° - - -
6/26 10:00am 194 3 G 7 94° 14% - - 39° 97.6° 77.3° - - -
6/26 9:50am 194 4 G 7 96° 13% - - 37° 97.6° 77.3° - - -
6/26 9:40am 247 3 G 6 97° 11% - - 33° 97.5° 77.3° - - -
6/26 9:30am 274 2 G 6 96° 10% - - 32° 96.9° 77.3° - - -
6/26 9:20am 227 2 G 5 95° 11% - - 33° 95.6° 77.3° - - -
6/26 9:10am 217 2 G 4 94° 15% - - 38° 94.3° 77.3° - - -
6/26 9:00am 236 1 G 4 93° 16% - - 40° 94.3° 77.3° - - -
6/26 8:50am 231 2 G 3 92° 18% - - 43° 94.3° 77.3° - - -
6/26 8:40am 227 2 G 4 92° 18% - - 43° 94.3° 77.3° - - -
6/26 8:30am 204 2 G 3 93° 16% - - 40° 94.3° 77.3° - - -
6/26 8:20am 55 2 G 3 94° 13% - - 36° 94° 77.3° - - -
6/26 8:10am 61 1 G 4 93° 17% - - 41° 94° 77.3° - - -
6/26 8:00am 45 1 G 4 91° 17% - - 39° 92° 77.3° - - -
6/26 7:50am 52 1 G 3 91° 18% - - 42° 91.9° 77.3° - - -
6/26 7:40am 94 2 G 3 89° 19% - - 41° 90.5° 77.3° - - -
6/26 7:30am 79 2 G 4 87° 18% - - 39° 88.2° 77.3° - - -
6/26 7:20am 60 3 G 5 85° 20% - - 40° 86.3° 77.3° - - -
6/26 7:10am 54 3 G 5 83° 22% - - 41° 85.8° 77.3° - - -
6/26 7:00am 51 3 G 4 83° 20% - - 37° 85.8° 77.3° - - -
6/26 6:50am 44 2 G 3 82° 21% - - 38° 85.8° 77.3° - - -
6/26 6:40am 66 3 G 5 82° 19% - - 36° 85.8° 77.3° - - -
6/26 6:30am 57 2 G 4 80° 20% - - 35° 85.8° 77.3° - - -
6/26 6:20am 61 4 G 6 80° 19% - - 34° 85.8° 77.3° - - -
6/26 6:10am 62 3 G 5 81° 18% - - 33° 85.8° 77.3° - - -
6/26 6:00am 63 4 G 5 82° 17% - - 32° 85.8° 77.3° - - -